sensor_id;sensor_type;location;lat;lon;timestamp;pressure;altitude;pressure_sealevel;temperature;humidity
49122;BME280;35529;44.342;25.944;2024-03-08T00:00:16;101172.31;;;7.04;100.00
49122;BME280;35529;44.342;25.944;2024-03-08T00:02:45;101170.97;;;7.00;100.00
49122;BME280;35529;44.342;25.944;2024-03-08T00:05:12;101162.06;;;7.01;100.00
49122;BME280;35529;44.342;25.944;2024-03-08T00:07:38;101158.59;;;7.01;100.00
49122;BME280;35529;44.342;25.944;2024-03-08T00:10:05;101158.91;;;6.98;100.00
49122;BME280;35529;44.342;25.944;2024-03-08T00:12:32;101148.66;;;6.95;100.00
49122;BME280;35529;44.342;25.944;2024-03-08T00:14:58;101158.03;;;6.89;100.00
49122;BME280;35529;44.342;25.944;2024-03-08T00:17:24;101146.78;;;6.87;100.00
49122;BME280;35529;44.342;25.944;2024-03-08T00:19:54;101154.72;;;6.87;100.00
49122;BME280;35529;44.342;25.944;2024-03-08T00:22:20;101144.84;;;6.89;100.00
49122;BME280;35529;44.342;25.944;2024-03-08T00:24:48;101146.50;;;6.90;100.00
49122;BME280;35529;44.342;25.944;2024-03-08T00:27:16;101143.88;;;6.90;100.00
49122;BME280;35529;44.342;25.944;2024-03-08T00:29:42;101139.56;;;6.89;100.00
49122;BME280;35529;44.342;25.944;2024-03-08T00:32:08;101140.34;;;6.81;100.00
49122;BME280;35529;44.342;25.944;2024-03-08T00:34:35;101144.25;;;6.77;100.00
49122;BME280;35529;44.342;25.944;2024-03-08T00:37:03;101137.97;;;6.70;100.00
49122;BME280;35529;44.342;25.944;2024-03-08T00:39:29;101137.63;;;6.73;100.00
49122;BME280;35529;44.342;25.944;2024-03-08T00:41:56;101143.59;;;6.75;100.00
49122;BME280;35529;44.342;25.944;2024-03-08T00:44:22;101143.94;;;6.80;100.00
49122;BME280;35529;44.342;25.944;2024-03-08T00:46:48;101133.38;;;6.80;100.00
49122;BME280;35529;44.342;25.944;2024-03-08T00:49:15;101138.53;;;6.82;100.00
49122;BME280;35529;44.342;25.944;2024-03-08T00:51:42;101132.41;;;6.81;100.00
49122;BME280;35529;44.342;25.944;2024-03-08T00:54:09;101143.28;;;6.78;100.00
49122;BME280;35529;44.342;25.944;2024-03-08T00:56:35;101131.75;;;6.79;100.00
49122;BME280;35529;44.342;25.944;2024-03-08T00:59:06;101137.63;;;6.73;100.00
49122;BME280;35529;44.342;25.944;2024-03-08T01:01:32;101136.13;;;6.70;100.00
49122;BME280;35529;44.342;25.944;2024-03-08T01:03:58;101137.13;;;6.69;100.00
49122;BME280;35529;44.342;25.944;2024-03-08T01:06:25;101129.34;;;6.68;100.00
49122;BME280;35529;44.342;25.944;2024-03-08T01:08:51;101127.47;;;6.60;100.00
49122;BME280;35529;44.342;25.944;2024-03-08T01:11:18;101134.06;;;6.56;100.00
49122;BME280;35529;44.342;25.944;2024-03-08T01:13:45;101139.44;;;6.46;100.00
49122;BME280;35529;44.342;25.944;2024-03-08T01:16:13;101136.25;;;6.43;100.00
49122;BME280;35529;44.342;25.944;2024-03-08T01:18:39;101134.63;;;6.42;100.00
49122;BME280;35529;44.342;25.944;2024-03-08T01:21:05;101127.69;;;6.41;100.00
49122;BME280;35529;44.342;25.944;2024-03-08T01:23:32;101127.97;;;6.37;100.00
49122;BME280;35529;44.342;25.944;2024-03-08T01:25:58;101131.06;;;6.33;100.00
49122;BME280;35529;44.342;25.944;2024-03-08T01:28:25;101129.13;;;6.35;100.00
49122;BME280;35529;44.342;25.944;2024-03-08T01:30:51;101128.28;;;6.34;100.00
49122;BME280;35529;44.342;25.944;2024-03-08T01:33:22;101126.34;;;6.36;100.00
49122;BME280;35529;44.342;25.944;2024-03-08T01:35:49;101131.22;;;6.31;100.00
49122;BME280;35529;44.342;25.944;2024-03-08T01:38:15;101138.31;;;6.31;100.00
49122;BME280;35529;44.342;25.944;2024-03-08T01:40:41;101135.38;;;6.34;100.00
49122;BME280;35529;44.342;25.944;2024-03-08T01:43:26;101142.44;;;6.33;100.00
49122;BME280;35529;44.342;25.944;2024-03-08T01:46:00;101130.09;;;6.34;100.00
49122;BME280;35529;44.342;25.944;2024-03-08T01:48:27;101134.25;;;6.36;100.00
49122;BME280;35529;44.342;25.944;2024-03-08T01:50:55;101134.53;;;6.33;100.00
49122;BME280;35529;44.342;25.944;2024-03-08T01:53:22;101137.16;;;6.33;100.00
49122;BME280;35529;44.342;25.944;2024-03-08T01:55:48;101139.38;;;6.38;100.00
49122;BME280;35529;44.342;25.944;2024-03-08T01:58:15;101141.84;;;6.40;100.00
49122;BME280;35529;44.342;25.944;2024-03-08T02:00:44;101144.41;;;6.31;100.00
49122;BME280;35529;44.342;25.944;2024-03-08T02:03:12;101145.47;;;6.38;100.00
49122;BME280;35529;44.342;25.944;2024-03-08T02:05:40;101143.78;;;6.37;100.00
49122;BME280;35529;44.342;25.944;2024-03-08T02:08:07;101149.91;;;6.38;100.00
49122;BME280;35529;44.342;25.944;2024-03-08T02:10:33;101149.91;;;6.38;100.00
49122;BME280;35529;44.342;25.944;2024-03-08T02:13:01;101151.59;;;6.39;100.00
49122;BME280;35529;44.342;25.944;2024-03-08T02:18:13;101146.75;;;6.34;100.00
49122;BME280;35529;44.342;25.944;2024-03-08T02:20:40;101145.78;;;6.35;100.00
49122;BME280;35529;44.342;25.944;2024-03-08T02:23:06;101143.13;;;6.35;100.00
49122;BME280;35529;44.342;25.944;2024-03-08T02:25:32;101146.75;;;6.34;100.00
49122;BME280;35529;44.342;25.944;2024-03-08T02:27:58;101138.19;;;6.32;100.00
49122;BME280;35529;44.342;25.944;2024-03-08T02:30:25;101145.25;;;6.32;100.00
49122;BME280;35529;44.342;25.944;2024-03-08T02:32:55;101137.63;;;6.29;100.00
49122;BME280;35529;44.342;25.944;2024-03-08T02:35:22;101136.34;;;6.33;100.00
49122;BME280;35529;44.342;25.944;2024-03-08T02:37:48;101139.00;;;6.33;100.00
49122;BME280;35529;44.342;25.944;2024-03-08T02:40:14;101146.59;;;6.36;100.00
49122;BME280;35529;44.342;25.944;2024-03-08T02:42:40;101139.81;;;6.33;100.00
49122;BME280;35529;44.342;25.944;2024-03-08T02:45:06;101145.25;;;6.32;100.00
49122;BME280;35529;44.342;25.944;2024-03-08T02:47:35;101147.72;;;6.33;100.00
49122;BME280;35529;44.342;25.944;2024-03-08T02:50:02;101140.81;;;6.32;100.00
49122;BME280;35529;44.342;25.944;2024-03-08T02:52:29;101145.09;;;6.33;100.00
49122;BME280;35529;44.342;25.944;2024-03-08T02:54:56;101146.75;;;6.34;100.00
49122;BME280;35529;44.342;25.944;2024-03-08T02:57:22;101156.47;;;6.34;100.00
49122;BME280;35529;44.342;25.944;2024-03-08T02:59:49;101142.09;;;6.28;100.00
49122;BME280;35529;44.342;25.944;2024-03-08T03:02:15;101149.16;;;6.28;100.00
49122;BME280;35529;44.342;25.944;2024-03-08T03:04:42;101154.75;;;6.25;100.00
49122;BME280;35529;44.342;25.944;2024-03-08T03:07:09;101150.75;;;6.20;100.00
49122;BME280;35529;44.342;25.944;2024-03-08T03:09:35;101153.25;;;6.22;100.00
49122;BME280;35529;44.342;25.944;2024-03-08T03:12:01;101155.66;;;6.15;100.00
49122;BME280;35529;44.342;25.944;2024-03-08T03:14:28;101152.84;;;6.17;100.00
49122;BME280;35529;44.342;25.944;2024-03-08T03:16:54;101155.88;;;6.22;100.00
49122;BME280;35529;44.342;25.944;2024-03-08T03:19:20;101156.84;;;6.21;100.00
49122;BME280;35529;44.342;25.944;2024-03-08T03:21:47;101154.22;;;6.21;100.00
49122;BME280;35529;44.342;25.944;2024-03-08T03:24:13;101160.03;;;6.25;100.00
49122;BME280;35529;44.342;25.944;2024-03-08T03:26:42;101159.19;;;6.24;100.00
49122;BME280;35529;44.342;25.944;2024-03-08T03:29:09;101149.16;;;6.28;100.00
49122;BME280;35529;44.342;25.944;2024-03-08T03:31:36;101153.63;;;6.27;100.00
49122;BME280;35529;44.342;25.944;2024-03-08T03:34:03;101149.69;;;6.31;100.00
49122;BME280;35529;44.342;25.944;2024-03-08T03:36:30;101150.97;;;6.27;100.00
49122;BME280;35529;44.342;25.944;2024-03-08T03:38:56;101152.53;;;6.20;100.00
49122;BME280;35529;44.342;25.944;2024-03-08T03:41:36;101156.19;;;6.19;100.00
49122;BME280;35529;44.342;25.944;2024-03-08T03:44:02;101147.00;;;6.23;100.00
49122;BME280;35529;44.342;25.944;2024-03-08T03:46:29;101158.66;;;6.20;100.00
49122;BME280;35529;44.342;25.944;2024-03-08T03:48:55;101156.47;;;6.16;100.00
49122;BME280;35529;44.342;25.944;2024-03-08T03:51:21;101157.47;;;6.15;100.00
49122;BME280;35529;44.342;25.944;2024-03-08T03:53:47;101156.47;;;6.16;100.00
49122;BME280;35529;44.342;25.944;2024-03-08T03:56:14;101155.41;;;6.09;100.00
49122;BME280;35529;44.342;25.944;2024-03-08T03:58:40;101151.13;;;6.08;100.00
49122;BME280;35529;44.342;25.944;2024-03-08T04:01:07;101156.69;;;6.04;100.00
49122;BME280;35529;44.342;25.944;2024-03-08T04:03:33;101145.78;;;5.99;100.00
49122;BME280;35529;44.342;25.944;2024-03-08T04:05:59;101152.72;;;6.00;100.00
49122;BME280;35529;44.342;25.944;2024-03-08T04:08:26;101157.72;;;5.94;100.00
49122;BME280;35529;44.342;25.944;2024-03-08T04:10:53;101159.28;;;5.86;100.00
49122;BME280;35529;44.342;25.944;2024-03-08T04:13:19;101154.00;;;5.86;100.00
49122;BME280;35529;44.342;25.944;2024-03-08T04:15:46;101152.38;;;5.85;100.00
49122;BME280;35529;44.342;25.944;2024-03-08T04:18:14;101157.25;;;5.80;100.00
49122;BME280;35529;44.342;25.944;2024-03-08T04:20:40;101165.97;;;5.81;100.00
49122;BME280;35529;44.342;25.944;2024-03-08T04:23:06;101162.53;;;5.80;100.00
49122;BME280;35529;44.342;25.944;2024-03-08T04:25:33;101160.03;;;5.79;100.00
49122;BME280;35529;44.342;25.944;2024-03-08T04:27:59;101167.94;;;5.79;100.00
49122;BME280;35529;44.342;25.944;2024-03-08T04:30:25;101157.84;;;5.74;100.00
49122;BME280;35529;44.342;25.944;2024-03-08T04:32:54;101161.59;;;5.71;100.00
49122;BME280;35529;44.342;25.944;2024-03-08T04:35:21;101169.22;;;5.75;100.00
49122;BME280;35529;44.342;25.944;2024-03-08T04:37:53;101169.34;;;5.73;100.00
49122;BME280;35529;44.342;25.944;2024-03-08T04:40:20;101166.59;;;5.75;100.00
49122;BME280;35529;44.342;25.944;2024-03-08T04:42:48;101167.00;;;5.70;100.00
49122;BME280;35529;44.342;25.944;2024-03-08T04:45:17;101180.34;;;5.68;100.00
49122;BME280;35529;44.342;25.944;2024-03-08T04:47:45;101170.63;;;5.69;100.00
49122;BME280;35529;44.342;25.944;2024-03-08T04:50:13;101181.75;;;5.63;100.00
49122;BME280;35529;44.342;25.944;2024-03-08T04:52:39;101188.56;;;5.56;100.00
49122;BME280;35529;44.342;25.944;2024-03-08T04:55:05;101179.44;;;5.50;100.00
49122;BME280;35529;44.342;25.944;2024-03-08T04:57:32;101178.78;;;5.48;100.00
49122;BME280;35529;44.342;25.944;2024-03-08T04:59:58;101178.47;;;5.51;100.00
49122;BME280;35529;44.342;25.944;2024-03-08T05:02:25;101188.16;;;5.50;100.00
49122;BME280;35529;44.342;25.944;2024-03-08T05:04:51;101195.09;;;5.51;100.00
49122;BME280;35529;44.342;25.944;2024-03-08T05:07:17;101184.31;;;5.45;100.00
49122;BME280;35529;44.342;25.944;2024-03-08T05:09:45;101186.69;;;5.48;100.00
49122;BME280;35529;44.342;25.944;2024-03-08T05:12:18;101194.13;;;5.52;100.00
49122;BME280;35529;44.342;25.944;2024-03-08T05:14:47;101188.41;;;5.57;100.00
49122;BME280;35529;44.342;25.944;2024-03-08T05:17:15;101193.81;;;5.65;100.00
49122;BME280;35529;44.342;25.944;2024-03-08T05:19:43;101197.97;;;5.68;100.00
49122;BME280;35529;44.342;25.944;2024-03-08T05:22:09;101203.84;;;5.80;100.00
49122;BME280;35529;44.342;25.944;2024-03-08T05:24:35;101201.03;;;5.91;100.00
49122;BME280;35529;44.342;25.944;2024-03-08T05:27:02;101204.47;;;6.01;100.00
49122;BME280;35529;44.342;25.944;2024-03-08T05:29:29;101201.06;;;6.09;100.00
49122;BME280;35529;44.342;25.944;2024-03-08T05:31:55;101213.28;;;6.10;100.00
49122;BME280;35529;44.342;25.944;2024-03-08T05:34:22;101212.00;;;6.14;100.00
49122;BME280;35529;44.342;25.944;2024-03-08T05:36:49;101200.56;;;6.24;100.00
49122;BME280;35529;44.342;25.944;2024-03-08T05:39:16;101213.00;;;6.31;100.00
49122;BME280;35529;44.342;25.944;2024-03-08T05:41:43;101216.16;;;6.35;100.00
49122;BME280;35529;44.342;25.944;2024-03-08T05:44:09;101211.88;;;6.34;100.00
49122;BME280;35529;44.342;25.944;2024-03-08T05:46:36;101217.38;;;6.41;100.00
49122;BME280;35529;44.342;25.944;2024-03-08T05:49:03;101224.97;;;6.44;100.00
49122;BME280;35529;44.342;25.944;2024-03-08T05:51:34;101226.13;;;6.59;100.00
49122;BME280;35529;44.342;25.944;2024-03-08T05:54:01;101220.38;;;6.64;100.00
49122;BME280;35529;44.342;25.944;2024-03-08T05:56:32;101224.81;;;6.63;100.00
49122;BME280;35529;44.342;25.944;2024-03-08T05:58:58;101226.56;;;6.54;100.00
49122;BME280;35529;44.342;25.944;2024-03-08T06:01:25;101230.75;;;6.65;100.00
49122;BME280;35529;44.342;25.944;2024-03-08T06:03:52;101231.84;;;6.73;100.00
49122;BME280;35529;44.342;25.944;2024-03-08T06:06:21;101228.34;;;6.90;100.00
49122;BME280;35529;44.342;25.944;2024-03-08T06:08:48;101234.19;;;7.02;100.00
49122;BME280;35529;44.342;25.944;2024-03-08T06:11:17;101233.78;;;7.15;100.00
49122;BME280;35529;44.342;25.944;2024-03-08T06:13:44;101230.91;;;7.26;100.00
49122;BME280;35529;44.342;25.944;2024-03-08T06:16:10;101241.66;;;7.33;100.00
49122;BME280;35529;44.342;25.944;2024-03-08T06:18:37;101241.78;;;7.31;100.00
49122;BME280;35529;44.342;25.944;2024-03-08T06:21:03;101250.41;;;7.33;100.00
49122;BME280;35529;44.342;25.944;2024-03-08T06:23:31;101250.97;;;7.45;100.00
49122;BME280;35529;44.342;25.944;2024-03-08T06:25:57;101244.91;;;7.53;100.00
49122;BME280;35529;44.342;25.944;2024-03-08T06:28:24;101246.91;;;7.59;100.00
49122;BME280;35529;44.342;25.944;2024-03-08T06:30:50;101249.91;;;7.64;100.00
49122;BME280;35529;44.342;25.944;2024-03-08T06:33:17;101255.41;;;7.71;100.00
49122;BME280;35529;44.342;25.944;2024-03-08T06:35:43;101255.19;;;7.64;100.00
49122;BME280;35529;44.342;25.944;2024-03-08T06:38:10;101260.50;;;7.72;100.00
49122;BME280;35529;44.342;25.944;2024-03-08T06:40:37;101259.91;;;7.79;100.00
49122;BME280;35529;44.342;25.944;2024-03-08T06:43:04;101254.63;;;7.87;100.00
49122;BME280;35529;44.342;25.944;2024-03-08T06:45:33;101264.41;;;7.86;100.00
49122;BME280;35529;44.342;25.944;2024-03-08T06:48:00;101255.84;;;8.01;100.00
49122;BME280;35529;44.342;25.944;2024-03-08T06:50:26;101259.31;;;8.01;100.00
49122;BME280;35529;44.342;25.944;2024-03-08T06:52:52;101262.31;;;8.07;100.00
49122;BME280;35529;44.342;25.944;2024-03-08T06:55:20;101262.34;;;8.15;100.00
49122;BME280;35529;44.342;25.944;2024-03-08T06:57:46;101262.81;;;8.10;100.00
49122;BME280;35529;44.342;25.944;2024-03-08T07:00:13;101268.63;;;8.14;100.00
49122;BME280;35529;44.342;25.944;2024-03-08T07:02:44;101265.34;;;8.28;100.00
49122;BME280;35529;44.342;25.944;2024-03-08T07:05:19;101264.03;;;8.41;100.00
49122;BME280;35529;44.342;25.944;2024-03-08T07:07:46;101275.53;;;8.58;100.00
49122;BME280;35529;44.342;25.944;2024-03-08T07:10:14;101268.75;;;8.71;100.00
49122;BME280;35529;44.342;25.944;2024-03-08T07:12:41;101275.03;;;8.70;100.00
49122;BME280;35529;44.342;25.944;2024-03-08T07:15:08;101272.72;;;8.76;100.00
49122;BME280;35529;44.342;25.944;2024-03-08T07:17:39;101272.56;;;8.85;100.00
49122;BME280;35529;44.342;25.944;2024-03-08T07:20:06;101273.72;;;9.08;100.00
49122;BME280;35529;44.342;25.944;2024-03-08T07:22:38;101278.03;;;9.09;100.00
49122;BME280;35529;44.342;25.944;2024-03-08T07:25:07;101265.44;;;8.94;100.00
49122;BME280;35529;44.342;25.944;2024-03-08T07:27:48;101276.38;;;8.91;100.00
49122;BME280;35529;44.342;25.944;2024-03-08T07:30:15;101281.50;;;8.93;100.00
49122;BME280;35529;44.342;25.944;2024-03-08T07:33:01;101274.53;;;9.00;100.00
49122;BME280;35529;44.342;25.944;2024-03-08T07:35:51;101280.34;;;9.03;100.00
49122;BME280;35529;44.342;25.944;2024-03-08T07:38:20;101279.34;;;9.04;100.00
49122;BME280;35529;44.342;25.944;2024-03-08T07:40:47;101278.50;;;8.96;100.00
49122;BME280;35529;44.342;25.944;2024-03-08T07:43:13;101269.59;;;8.88;100.00
49122;BME280;35529;44.342;25.944;2024-03-08T07:45:40;101274.88;;;8.80;100.00
49122;BME280;35529;44.342;25.944;2024-03-08T07:48:06;101270.56;;;8.79;100.00
49122;BME280;35529;44.342;25.944;2024-03-08T07:50:36;101271.72;;;8.93;100.00
49122;BME280;35529;44.342;25.944;2024-03-08T07:53:06;101279.00;;;9.08;100.00
49122;BME280;35529;44.342;25.944;2024-03-08T07:55:36;101283.94;;;9.35;100.00
49122;BME280;35529;44.342;25.944;2024-03-08T07:58:24;101281.59;;;9.49;100.00
49122;BME280;35529;44.342;25.944;2024-03-08T08:00:54;101279.06;;;9.64;100.00
49122;BME280;35529;44.342;25.944;2024-03-08T08:03:40;101269.31;;;9.56;100.00
49122;BME280;35529;44.342;25.944;2024-03-08T08:06:08;101271.41;;;9.77;100.00
49122;BME280;35529;44.342;25.944;2024-03-08T08:08:34;101275.28;;;10.06;100.00
49122;BME280;35529;44.342;25.944;2024-03-08T08:11:01;101273.13;;;10.01;100.00
49122;BME280;35529;44.342;25.944;2024-03-08T08:13:28;101280.31;;;9.84;100.00
49122;BME280;35529;44.342;25.944;2024-03-08T08:15:58;101288.28;;;9.84;100.00
49122;BME280;35529;44.342;25.944;2024-03-08T08:18:24;101293.16;;;9.64;100.00
49122;BME280;35529;44.342;25.944;2024-03-08T08:20:51;101279.31;;;9.46;100.00
49122;BME280;35529;44.342;25.944;2024-03-08T08:23:20;101284.25;;;9.49;100.00
49122;BME280;35529;44.342;25.944;2024-03-08T08:25:47;101287.91;;;9.48;100.00
49122;BME280;35529;44.342;25.944;2024-03-08T08:28:16;101286.56;;;9.52;100.00
49122;BME280;35529;44.342;25.944;2024-03-08T08:31:06;101281.94;;;9.37;100.00
49122;BME280;35529;44.342;25.944;2024-03-08T08:33:34;101274.72;;;9.23;100.00
49122;BME280;35529;44.342;25.944;2024-03-08T08:36:01;101281.31;;;9.11;100.00
49122;BME280;35529;44.342;25.944;2024-03-08T08:38:27;101267.44;;;9.09;100.00
49122;BME280;35529;44.342;25.944;2024-03-08T08:40:54;101282.00;;;9.04;100.00
49122;BME280;35529;44.342;25.944;2024-03-08T08:43:21;101279.84;;;9.00;100.00
49122;BME280;35529;44.342;25.944;2024-03-08T08:45:53;101276.34;;;9.24;100.00
49122;BME280;35529;44.342;25.944;2024-03-08T09:23:14;101281.66;;;10.20;100.00
49122;BME280;35529;44.342;25.944;2024-03-08T09:25:58;101288.78;;;10.28;100.00
49122;BME280;35529;44.342;25.944;2024-03-08T09:28:52;101281.78;;;10.35;100.00
49122;BME280;35529;44.342;25.944;2024-03-08T09:55:40;101287.69;;;11.30;100.00
49122;BME280;35529;44.342;25.944;2024-03-08T10:19:12;101281.09;;;11.26;100.00
49122;BME280;35529;44.342;25.944;2024-03-08T10:21:51;101285.13;;;11.21;100.00
49122;BME280;35529;44.342;25.944;2024-03-08T10:24:25;101290.66;;;11.12;100.00
49122;BME280;35529;44.342;25.944;2024-03-08T10:27:03;101286.69;;;11.16;100.00
49122;BME280;35529;44.342;25.944;2024-03-08T10:29:33;101284.66;;;11.18;100.00
49122;BME280;35529;44.342;25.944;2024-03-08T10:32:09;101287.22;;;11.26;100.00
49122;BME280;35529;44.342;25.944;2024-03-08T10:34:36;101271.75;;;11.30;100.00
49122;BME280;35529;44.342;25.944;2024-03-08T10:37:13;101274.13;;;11.24;100.00
49122;BME280;35529;44.342;25.944;2024-03-08T10:39:54;101282.16;;;11.16;100.00
49122;BME280;35529;44.342;25.944;2024-03-08T10:42:24;101282.78;;;11.03;100.00
49122;BME280;35529;44.342;25.944;2024-03-08T10:47:31;101277.00;;;10.77;100.00
49122;BME280;35529;44.342;25.944;2024-03-08T10:53:00;101278.25;;;10.66;100.00
49122;BME280;35529;44.342;25.944;2024-03-08T10:55:30;101266.22;;;10.78;100.00
49122;BME280;35529;44.342;25.944;2024-03-08T10:58:01;101266.28;;;10.93;100.00
49122;BME280;35529;44.342;25.944;2024-03-08T11:03:59;101256.69;;;10.69;100.00
49122;BME280;35529;44.342;25.944;2024-03-08T11:06:51;101266.66;;;10.44;100.00
49122;BME280;35529;44.342;25.944;2024-03-08T11:13:05;101268.63;;;10.42;100.00
49122;BME280;35529;44.342;25.944;2024-03-08T11:18:22;101261.06;;;10.30;100.00
49122;BME280;35529;44.342;25.944;2024-03-08T11:33:21;101254.38;;;10.43;100.00
49122;BME280;35529;44.342;25.944;2024-03-08T11:46:54;101243.59;;;9.73;100.00
49122;BME280;35529;44.342;25.944;2024-03-08T11:49:20;101248.75;;;9.66;100.00
49122;BME280;35529;44.342;25.944;2024-03-08T11:51:47;101242.31;;;9.61;100.00
49122;BME280;35529;44.342;25.944;2024-03-08T11:54:16;101240.63;;;9.68;100.00
49122;BME280;35529;44.342;25.944;2024-03-08T11:56:44;101237.47;;;9.72;100.00
49122;BME280;35529;44.342;25.944;2024-03-08T11:59:13;101230.78;;;9.85;100.00
49122;BME280;35529;44.342;25.944;2024-03-08T12:01:39;101237.34;;;9.97;100.00
49122;BME280;35529;44.342;25.944;2024-03-08T12:04:05;101235.94;;;10.10;100.00
49122;BME280;35529;44.342;25.944;2024-03-08T12:06:38;101234.25;;;10.17;100.00
49122;BME280;35529;44.342;25.944;2024-03-08T12:09:08;101233.09;;;10.19;100.00
49122;BME280;35529;44.342;25.944;2024-03-08T12:11:36;101228.84;;;10.33;100.00
49122;BME280;35529;44.342;25.944;2024-03-08T12:14:03;101224.16;;;10.44;100.00
49122;BME280;35529;44.342;25.944;2024-03-08T12:16:29;101237.59;;;10.42;100.00
49122;BME280;35529;44.342;25.944;2024-03-08T12:18:55;101218.13;;;10.50;100.00
49122;BME280;35529;44.342;25.944;2024-03-08T12:21:22;101223.22;;;10.60;100.00
49122;BME280;35529;44.342;25.944;2024-03-08T12:24:04;101213.91;;;10.79;100.00
49122;BME280;35529;44.342;25.944;2024-03-08T12:26:30;101216.13;;;10.90;100.00
49122;BME280;35529;44.342;25.944;2024-03-08T12:31:43;101219.19;;;11.17;100.00
49122;BME280;35529;44.342;25.944;2024-03-08T12:34:10;101220.03;;;11.17;100.00
49122;BME280;35529;44.342;25.944;2024-03-08T12:36:37;101223.59;;;11.10;100.00
49122;BME280;35529;44.342;25.944;2024-03-08T12:42:26;101210.50;;;11.08;100.00
49122;BME280;35529;44.342;25.944;2024-03-08T13:01:04;101207.03;;;11.52;100.00
49122;BME280;35529;44.342;25.944;2024-03-08T13:03:34;101209.88;;;11.51;100.00
49122;BME280;35529;44.342;25.944;2024-03-08T13:06:04;101203.16;;;11.70;100.00
49122;BME280;35529;44.342;25.944;2024-03-08T13:08:37;101203.94;;;11.85;100.00
49122;BME280;35529;44.342;25.944;2024-03-08T13:11:09;101196.41;;;11.89;100.00
49122;BME280;35529;44.342;25.944;2024-03-08T13:13:40;101193.28;;;11.85;100.00
49122;BME280;35529;44.342;25.944;2024-03-08T13:16:06;101197.59;;;11.86;100.00
49122;BME280;35529;44.342;25.944;2024-03-08T13:18:38;101191.53;;;12.07;100.00
49122;BME280;35529;44.342;25.944;2024-03-08T13:21:04;101197.31;;;12.33;100.00
49122;BME280;35529;44.342;25.944;2024-03-08T13:23:34;101186.84;;;12.53;100.00
49122;BME280;35529;44.342;25.944;2024-03-08T13:26:08;101186.03;;;12.59;100.00
49122;BME280;35529;44.342;25.944;2024-03-08T13:28:35;101189.31;;;12.54;99.79
49122;BME280;35529;44.342;25.944;2024-03-08T13:31:05;101184.16;;;12.53;99.46
49122;BME280;35529;44.342;25.944;2024-03-08T13:33:38;101184.28;;;12.66;99.36
49122;BME280;35529;44.342;25.944;2024-03-08T13:36:11;101189.16;;;12.63;98.72
49122;BME280;35529;44.342;25.944;2024-03-08T13:38:47;101183.03;;;12.62;99.07
49122;BME280;35529;44.342;25.944;2024-03-08T13:41:14;101184.28;;;12.66;98.73
49122;BME280;35529;44.342;25.944;2024-03-08T13:43:41;101193.72;;;12.69;98.57
49122;BME280;35529;44.342;25.944;2024-03-08T13:46:07;101196.19;;;12.70;98.53
49122;BME280;35529;44.342;25.944;2024-03-08T13:48:33;101193.28;;;12.65;98.74
49122;BME280;35529;44.342;25.944;2024-03-08T13:51:00;101187.69;;;12.60;98.58
49122;BME280;35529;44.342;25.944;2024-03-08T13:53:26;101188.59;;;12.46;98.49
49122;BME280;35529;44.342;25.944;2024-03-08T13:55:52;101188.53;;;12.39;98.36
49122;BME280;35529;44.342;25.944;2024-03-08T13:58:19;101179.72;;;12.38;98.93
49122;BME280;35529;44.342;25.944;2024-03-08T14:00:47;101183.22;;;12.39;98.13
49122;BME280;35529;44.342;25.944;2024-03-08T14:03:13;101186.72;;;12.39;98.62
49122;BME280;35529;44.342;25.944;2024-03-08T14:46:38;101180.28;;;11.76;98.14
49122;BME280;35529;44.342;25.944;2024-03-08T14:55:44;101178.50;;;11.46;99.07
49122;BME280;35529;44.342;25.944;2024-03-08T14:58:32;101181.44;;;11.36;99.47
49122;BME280;35529;44.342;25.944;2024-03-08T15:04:45;101180.69;;;10.98;100.00
49122;BME280;35529;44.342;25.944;2024-03-08T15:11:03;101175.84;;;10.63;100.00
49122;BME280;35529;44.342;25.944;2024-03-08T15:13:51;101175.91;;;10.40;100.00
49122;BME280;35529;44.342;25.944;2024-03-08T15:30:28;101191.94;;;9.92;100.00
49122;BME280;35529;44.342;25.944;2024-03-08T15:33:42;101178.34;;;9.87;100.00
49122;BME280;35529;44.342;25.944;2024-03-08T15:42:05;101190.22;;;9.68;100.00
49122;BME280;35529;44.342;25.944;2024-03-08T15:47:43;101197.91;;;9.54;100.00
49122;BME280;35529;44.342;25.944;2024-03-08T15:50:25;101200.59;;;9.46;100.00
49122;BME280;35529;44.342;25.944;2024-03-08T15:52:59;101201.63;;;9.37;100.00
49122;BME280;35529;44.342;25.944;2024-03-08T15:55:33;101199.81;;;9.29;100.00
49122;BME280;35529;44.342;25.944;2024-03-08T15:58:10;101201.50;;;9.22;100.00
49122;BME280;35529;44.342;25.944;2024-03-08T16:00:42;101211.09;;;9.15;100.00
49122;BME280;35529;44.342;25.944;2024-03-08T16:03:25;101208.31;;;9.08;100.00
49122;BME280;35529;44.342;25.944;2024-03-08T16:06:13;101205.00;;;9.06;100.00
49122;BME280;35529;44.342;25.944;2024-03-08T16:09:10;101196.56;;;9.02;100.00
49122;BME280;35529;44.342;25.944;2024-03-08T16:15:14;101206.50;;;9.00;100.00
49122;BME280;35529;44.342;25.944;2024-03-08T16:26:08;101206.03;;;8.80;100.00
49122;BME280;35529;44.342;25.944;2024-03-08T16:36:57;101212.34;;;8.71;100.00
49122;BME280;35529;44.342;25.944;2024-03-08T16:39:28;101216.78;;;8.70;100.00
49122;BME280;35529;44.342;25.944;2024-03-08T16:42:00;101224.41;;;8.74;100.00
49122;BME280;35529;44.342;25.944;2024-03-08T16:44:33;101220.75;;;8.75;100.00
49122;BME280;35529;44.342;25.944;2024-03-08T16:46:59;101224.59;;;8.72;100.00
49122;BME280;35529;44.342;25.944;2024-03-08T16:49:34;101222.75;;;8.64;100.00